Lowest pressure

Not for real navigation. The accuracy of this data is not assured See disclaimer for more information



ICAO NAME COUNTRY WIND Kt GUST Kt VIS m TEMP/DEW C BARO METAR
ETHB Bueckeburg Germany 7 0 6000 11/5 0.03 ETHB 261220Z AUTO 04007KT 6000 // ////// 11/05 Q0001 ///
NZSP Amundsen-Scott South Pole Stat Antarctica 11 0 1600 -59/0 28.43 NZSP 261150Z 09011KT 1600 BR FEW000 M59/ A2843 RMK BR FEW000 CLN AIR 09012KT ALL WNDS GRID
ENBS Batsfjord Norway 38 0 6000 -1/-3 28.79 ENBS 261150Z 27038KT 6000 -SHSN DRSN SCT015 SCT028 M01/M03 Q0975
ENBV Berlevag Norway 28 0 9999 2/-2 28.85 ENBV 261150Z 25028KT 9999 FEW014 SCT025 02/M02 Q0977
ENVD Vadso Norway 32 0 9999 3/-2 28.88 ENVD 261150Z 26032KT 9999 FEW015 SCT030 03/M02 Q0978

Show more